Zito Soares, Brazil
Current Conditions -  °F | °C
As of 9:00 AM on Saturday 22 Nov 2014 (Local Time) from SBCF Reporting Station
Clear Clear  
Wind Chill: 73°   Ceiling: Unl
Heat Index: 73°   Visibility: 6mi
Dew Point: 63°   Wind: 7mph
Humidity: 69%   Direction: 110°ESE
Pressure: 30.06"   Gusts: NA
Location:  20.18°S, 42.76°W
Report Text: SBCF 221100Z 11006KT CAVOK 23/17 Q1018
Loading
Personal Weather Stations






























Interactive Weather Map New forecast layout! Learn more

10-Day Weather Forecast

Advertisements
Track Severe Weather on mobile